Time;durP1;ratioP1;P1;durP2;ratioP2;P2;SDS_P1;SDS_P2;PMS_P1;PMS_P2;Temp;Humidity;BMP_temperature;BMP_pressure;BME280_temperature;BME280_humidity;BME280_pressure;Samples;Min_cycle;Max_cycle;Signal;HPM_P1;HPM_P2
2022/06/21 00:01:31;;;;;;;6.68;3.70;;;;;;;;;;5098341;28;20130;-72
2022/06/21 00:03:57;;;;;;;4.25;3.70;;;;;;;;;;5098474;28;20051;-72
2022/06/21 00:06:25;;;;;;;4.40;3.13;;;;;;;;;;5098200;28;20575;-72
2022/06/21 00:08:52;;;;;;;4.72;3.55;;;;;;;;;;5098043;28;20086;-72
2022/06/21 00:11:22;;;;;;;3.40;3.13;;;;;;;;;;5098479;28;20052;-72
2022/06/21 00:13:48;;;;;;;3.85;2.90;;;;;;;;;;5097929;28;20076;-72
2022/06/21 00:16:15;;;;;;;3.90;3.42;;;;;;;;;;5098370;28;20119;-71
2022/06/21 00:18:43;;;;;;;3.60;3.22;;;;;;;;;;5098168;28;20052;-72
2022/06/21 00:21:12;;;;;;;3.92;3.28;;;;;;;;;;5098346;28;20040;-72
2022/06/21 00:23:39;;;;;;;3.72;3.10;;;;;;;;;;5098321;28;20055;-72
2022/06/21 00:26:05;;;;;;;4.05;3.05;;;;;;;;;;5098222;28;20040;-72
2022/06/21 00:28:31;;;;;;;4.63;3.50;;;;;;;;;;5098311;28;20480;-72
2022/06/21 00:30:58;;;;;;;4.55;3.38;;;;;;;;;;5098026;28;20079;-72
2022/06/21 00:33:25;;;;;;;4.30;2.67;;;;;;;;;;5097863;28;20504;-72
2022/06/21 00:35:53;;;;;;;4.32;3.35;;;;;;;;;;5097911;28;20484;-72
2022/06/21 00:38:30;;;;;;;3.50;3.20;;;;;;;;;;5097750;28;20079;-72
2022/06/21 00:40:58;;;;;;;5.28;3.08;;;;;;;;;;5098227;28;20047;-72
2022/06/21 00:43:27;;;;;;;4.85;3.63;;;;;;;;;;5098025;28;20399;-72
2022/06/21 00:45:54;;;;;;;4.28;3.00;;;;;;;;;;5097908;28;20075;-72
2022/06/21 00:48:27;;;;;;;4.05;3.65;;;;;;;;;;5097922;28;20075;-72
2022/06/21 00:50:56;;;;;;;3.97;3.55;;;;;;;;;;5097822;28;20087;-72
2022/06/21 00:53:34;;;;;;;5.00;3.65;;;;;;;;;;5097827;28;20052;-72
2022/06/21 00:56:06;;;;;;;4.57;3.72;;;;;;;;;;5094039;28;20511;-72
2022/06/21 00:58:33;;;;;;;5.30;3.63;;;;;;;;;;5094512;28;20051;-72
2022/06/21 01:01:01;;;;;;;3.70;3.40;;;;;;;;;;5094397;28;20058;-72
2022/06/21 01:03:30;;;;;;;3.80;3.50;;;;;;;;;;5094560;28;20411;-72
2022/06/21 01:05:59;;;;;;;4.45;3.53;;;;;;;;;;5094510;28;20044;-72
2022/06/21 01:08:29;;;;;;;4.90;3.30;;;;;;;;;;5094394;28;20048;-72
2022/06/21 01:10:57;;;;;;;4.38;3.80;;;;;;;;;;5094591;28;20040;-72
2022/06/21 01:13:23;;;;;;;;;;;;;;;;;;5094568;28;20091;-72
2022/06/21 01:15:50;;;;;;;4.20;3.72;;;;;;;;;;5094295;28;19959;-72
2022/06/21 01:18:18;;;;;;;3.53;3.22;;;;;;;;;;5094355;28;20054;-72
2022/06/21 01:20:47;;;;;;;4.40;3.97;;;;;;;;;;5094163;28;20454;-72
2022/06/21 01:23:13;;;;;;;4.03;3.72;;;;;;;;;;5094039;28;20078;-72
2022/06/21 01:25:43;;;;;;;4.40;3.90;;;;;;;;;;5094117;28;20052;-72
2022/06/21 01:28:09;;;;;;;4.80;3.75;;;;;;;;;;5093934;28;20134;-72
2022/06/21 01:30:36;;;;;;;3.75;3.45;;;;;;;;;;5093832;28;20491;-72
2022/06/21 01:33:03;;;;;;;4.32;3.70;;;;;;;;;;5094102;28;20109;-72
2022/06/21 01:35:33;;;;;;;5.45;3.53;;;;;;;;;;5093707;28;20557;-72
2022/06/21 01:37:59;;;;;;;5.38;3.47;;;;;;;;;;5093674;28;20080;-72
2022/06/21 01:40:29;;;;;;;4.93;3.40;;;;;;;;;;5093533;28;20060;-72
2022/06/21 01:43:01;;;;;;;4.85;3.15;;;;;;;;;;5093891;28;20048;-72
2022/06/21 01:45:30;;;;;;;4.25;3.85;;;;;;;;;;5093673;28;20094;-72
2022/06/21 01:48:02;;;;;;;4.00;3.60;;;;;;;;;;5092797;28;20074;-72
2022/06/21 01:50:29;;;;;;;4.72;3.72;;;;;;;;;;5093545;28;20094;-72
2022/06/21 01:52:56;;;;;;;4.57;3.73;;;;;;;;;;5093678;28;20462;-72
2022/06/21 01:55:26;;;;;;;4.28;3.88;;;;;;;;;;5093464;28;20075;-72
2022/06/21 01:57:54;;;;;;;5.57;3.72;;;;;;;;;;5093308;28;20557;-72
2022/06/21 02:00:20;;;;;;;3.63;3.25;;;;;;;;;;5093255;28;20048;-72
2022/06/21 02:02:52;;;;;;;3.13;2.92;;;;;;;;;;5093320;28;20449;-72
2022/06/21 02:05:25;;;;;;;3.80;3.17;;;;;;;;;;5092979;28;20048;-72
2022/06/21 02:07:55;;;;;;;3.65;3.28;;;;;;;;;;5092917;28;20047;-72
2022/06/21 02:10:24;;;;;;;5.10;3.53;;;;;;;;;;5093128;28;20465;-72
2022/06/21 02:12:53;;;;;;;3.83;3.45;;;;;;;;;;5093475;28;20047;-72
2022/06/21 02:15:30;;;;;;;4.88;3.67;;;;;;;;;;5092984;28;20079;-72
2022/06/21 02:17:58;;;;;;;3.50;3.20;;;;;;;;;;5093251;28;20075;-72
2022/06/21 02:20:31;;;;;;;3.83;3.53;;;;;;;;;;5092953;28;20495;-72
2022/06/21 02:22:57;;;;;;;3.90;3.25;;;;;;;;;;5093030;28;20068;-72
2022/06/21 02:25:24;;;;;;;4.47;3.35;;;;;;;;;;5092765;28;20087;-72
2022/06/21 02:27:53;;;;;;;3.72;3.35;;;;;;;;;;5093066;28;20082;-72
2022/06/21 02:30:21;;;;;;;5.75;3.63;;;;;;;;;;5092995;28;20079;-72
2022/06/21 02:32:49;;;;;;;3.42;3.13;;;;;;;;;;5092671;28;20055;-72
2022/06/21 02:35:15;;;;;;;;;;;;;;;;;;5093360;28;20079;-72
2022/06/21 02:37:42;;;;;;;4.22;3.83;;;;;;;;;;5092853;28;19955;-72
2022/06/21 02:40:15;;;;;;;4.35;3.90;;;;;;;;;;5092435;28;20303;-72
2022/06/21 02:42:42;;;;;;;4.13;3.72;;;;;;;;;;5092902;28;20078;-71
2022/06/21 02:45:21;;;;;;;4.25;3.70;;;;;;;;;;5092390;28;20499;-71
2022/06/21 02:47:56;;;;;;;5.10;3.58;;;;;;;;;;5092786;28;20101;-72
2022/06/21 02:50:25;;;;;;;4.40;3.75;;;;;;;;;;5092599;28;20106;-72
2022/06/21 02:52:53;;;;;;;6.50;4.20;;;;;;;;;;5092608;28;20156;-72
2022/06/21 02:55:26;;;;;;;4.95;3.80;;;;;;;;;;5092055;28;20098;-72
2022/06/21 02:57:59;;;;;;;4.45;3.38;;;;;;;;;;5092157;28;20083;-72
2022/06/21 03:00:26;;;;;;;5.53;3.50;;;;;;;;;;5092449;28;20143;-72
2022/06/21 03:02:53;;;;;;;4.03;3.73;;;;;;;;;;5092335;28;20459;-72
2022/06/21 03:05:21;;;;;;;3.95;3.65;;;;;;;;;;5092135;28;20048;-72
2022/06/21 03:07:59;;;;;;;3.63;3.33;;;;;;;;;;5092154;28;20075;-72
2022/06/21 03:10:29;;;;;;;3.75;3.42;;;;;;;;;;5092345;28;20052;-72
2022/06/21 03:13:08;;;;;;;5.03;3.85;;;;;;;;;;5092303;28;20047;-72
2022/06/21 03:15:35;;;;;;;4.18;3.55;;;;;;;;;;5092109;28;20391;-71
2022/06/21 03:18:06;;;;;;;5.35;3.55;;;;;;;;;;5091565;28;20052;-71
2022/06/21 03:20:33;;;;;;;5.82;3.85;;;;;;;;;;5092080;28;20093;-71
2022/06/21 03:23:01;;;;;;;3.90;3.50;;;;;;;;;;5091884;28;20089;-72
2022/06/21 03:25:32;;;;;;;3.38;3.08;;;;;;;;;;5092181;28;20451;-71
2022/06/21 03:27:59;;;;;;;3.95;3.28;;;;;;;;;;5091833;28;20131;-72
2022/06/21 03:30:26;;;;;;;;;;;;;;;;;;5092274;28;20491;-72
2022/06/21 03:32:54;;;;;;;3.92;3.20;;;;;;;;;;5091986;28;19955;-72
2022/06/21 03:35:21;;;;;;;6.95;3.80;;;;;;;;;;5091983;28;20075;-71
2022/06/21 03:37:47;;;;;;;4.05;3.20;;;;;;;;;;5091967;28;20472;-71
2022/06/21 03:43:27;;;;;;;3.13;2.92;;;;;;;;;;5091961;28;20513;-72
2022/06/21 03:45:54;;;;;;;5.07;3.60;;;;;;;;;;5088095;28;20504;-72
2022/06/21 03:48:27;;;;;;;4.72;3.58;;;;;;;;;;5091850;28;20456;-71
2022/06/21 03:51:08;;;;;;;3.95;3.42;;;;;;;;;;5091523;28;20076;-72
2022/06/21 03:54:03;;;;;;;3.80;3.20;;;;;;;;;;5091579;28;20130;-72
2022/06/21 03:56:34;;;;;;;4.45;3.97;;;;;;;;;;5019184;28;20081;-72
2022/06/21 03:59:16;;;;;;;3.92;3.53;;;;;;;;;;5091477;28;20472;-72
2022/06/21 04:01:54;;;;;;;4.90;3.90;;;;;;;;;;5091765;28;20075;-72
2022/06/21 04:04:24;;;;;;;7.15;4.97;;;;;;;;;;5091713;28;20127;-72
2022/06/21 04:07:13;;;;;;;3.88;3.50;;;;;;;;;;5091624;28;20052;-72
2022/06/21 04:09:49;;;;;;;4.70;3.67;;;;;;;;;;5080943;28;20051;-72
2022/06/21 04:12:38;;;;;;;4.85;4.03;;;;;;;;;;5091327;28;20135;-72
2022/06/21 04:15:10;;;;;;;4.25;3.85;;;;;;;;;;5091548;28;20093;-72
2022/06/21 04:17:40;;;;;;;4.05;3.65;;;;;;;;;;5091615;28;20097;-72
2022/06/21 04:20:10;;;;;;;5.00;3.83;;;;;;;;;;5090109;28;20049;-72
2022/06/21 04:22:38;;;;;;;4.85;4.05;;;;;;;;;;5091278;28;20048;-72
2022/06/21 04:25:11;;;;;;;6.50;3.38;;;;;;;;;;5091201;28;20047;-72
2022/06/21 04:27:44;;;;;;;4.80;3.75;;;;;;;;;;5091211;28;20044;-72
2022/06/21 04:30:23;;;;;;;5.00;3.40;;;;;;;;;;5092331;28;20101;-72
2022/06/21 04:32:54;;;;;;;4.43;4.00;;;;;;;;;;5095334;28;20056;-72
2022/06/21 04:35:20;;;;;;;3.67;3.20;;;;;;;;;;5095124;28;20080;-72
2022/06/21 04:37:49;;;;;;;4.40;4.00;;;;;;;;;;5094863;28;20553;-72
2022/06/21 04:40:26;;;;;;;4.40;4.00;;;;;;;;;;5094761;28;20105;-72
2022/06/21 04:42:57;;;;;;;4.55;4.00;;;;;;;;;;5095114;28;20082;-72
2022/06/21 04:45:31;;;;;;;4.22;3.70;;;;;;;;;;5094916;28;20052;-72
2022/06/21 04:48:09;;;;;;;4.95;4.03;;;;;;;;;;5095005;28;20047;-72
2022/06/21 04:50:44;;;;;;;4.55;3.67;;;;;;;;;;5094747;28;20557;-72
2022/06/21 04:53:11;;;;;;;3.97;3.50;;;;;;;;;;5094890;28;20047;-72
2022/06/21 04:55:44;;;;;;;4.28;3.90;;;;;;;;;;5094442;28;20492;-72
2022/06/21 04:58:10;;;;;;;6.15;4.40;;;;;;;;;;5094643;28;20048;-72
2022/06/21 05:00:37;;;;;;;5.07;3.83;;;;;;;;;;5094712;28;20044;-72
2022/06/21 05:03:09;;;;;;;4.15;3.70;;;;;;;;;;5094398;28;20048;-72
2022/06/21 05:05:37;;;;;;;4.18;3.78;;;;;;;;;;5094631;28;20048;-72
2022/06/21 05:08:03;;;;;;;;;;;;;;;;;;5094803;28;20056;-72
2022/06/21 05:10:37;;;;;;;4.13;3.50;;;;;;;;;;5094547;28;19973;-72
2022/06/21 05:13:06;;;;;;;4.53;4.13;;;;;;;;;;5094761;28;20044;-72
2022/06/21 05:15:35;;;;;;;4.32;3.92;;;;;;;;;;5094338;28;20044;-72
2022/06/21 05:18:27;;;;;;;4.10;3.67;;;;;;;;;;5094143;28;20048;-72
2022/06/21 05:20:55;;;;;;;5.78;4.20;;;;;;;;;;5090334;28;20040;-72
2022/06/21 05:23:23;;;;;;;4.47;3.80;;;;;;;;;;5093998;28;20073;-72
2022/06/21 05:25:50;;;;;;;4.80;4.25;;;;;;;;;;5094303;28;20056;-72
2022/06/21 05:28:19;;;;;;;4.80;4.07;;;;;;;;;;5094022;28;20102;-72
2022/06/21 05:30:54;;;;;;;3.85;3.55;;;;;;;;;;5093989;28;20102;-72
2022/06/21 05:33:24;;;;;;;5.13;4.15;;;;;;;;;;5093933;28;20070;-72
2022/06/21 05:35:51;;;;;;;5.53;4.13;;;;;;;;;;5093749;28;20048;-72
2022/06/21 05:38:22;;;;;;;5.85;4.00;;;;;;;;;;5093596;28;20076;-72
2022/06/21 05:40:56;;;;;;;4.38;4.00;;;;;;;;;;5093891;28;20469;-72
2022/06/21 05:43:31;;;;;;;4.32;3.92;;;;;;;;;;5094061;28;20044;-72
2022/06/21 05:46:02;;;;;;;6.03;3.75;;;;;;;;;;5093694;28;20047;-72
2022/06/21 05:48:34;;;;;;;4.35;3.53;;;;;;;;;;5093872;28;20056;-72
2022/06/21 05:51:03;;;;;;;5.70;4.18;;;;;;;;;;5093561;28;20454;-72
2022/06/21 05:53:32;;;;;;;5.47;3.90;;;;;;;;;;5093454;28;20059;-72
2022/06/21 05:56:03;;;;;;;4.45;4.03;;;;;;;;;;5093275;28;20511;-72
2022/06/21 05:58:32;;;;;;;4.72;4.35;;;;;;;;;;5093840;28;20105;-72
2022/06/21 06:00:58;;;;;;;7.18;4.57;;;;;;;;;;5093624;28;20093;-72
2022/06/21 06:03:43;;;;;;;5.20;4.30;;;;;;;;;;5093585;28;20404;-72
2022/06/21 06:06:12;;;;;;;6.60;4.47;;;;;;;;;;5091709;28;20060;-72
2022/06/21 06:08:40;;;;;;;5.28;4.68;;;;;;;;;;5093137;28;20070;-72
2022/06/21 06:11:12;;;;;;;6.95;4.80;;;;;;;;;;5093139;28;20044;-72
2022/06/21 06:13:41;;;;;;;4.70;4.30;;;;;;;;;;5092868;28;20101;-72
2022/06/21 06:16:15;;;;;;;6.25;4.50;;;;;;;;;;5092571;28;20093;-71
2022/06/21 06:19:04;;;;;;;5.30;4.28;;;;;;;;;;5092564;28;20127;-72
2022/06/21 06:21:36;;;;;;;7.85;5.05;;;;;;;;;;5052959;28;20072;-72
2022/06/21 06:24:07;;;;;;;6.07;4.50;;;;;;;;;;5092208;28;20470;-71
2022/06/21 06:26:37;;;;;;;4.50;4.10;;;;;;;;;;5092829;28;20051;-72
2022/06/21 06:29:13;;;;;;;6.78;4.15;;;;;;;;;;5092544;28;20059;-72
2022/06/21 06:31:47;;;;;;;5.88;4.05;;;;;;;;;;5091286;28;20040;-72
2022/06/21 06:34:16;;;;;;;7.40;4.22;;;;;;;;;;5091505;28;20079;-70
2022/06/21 06:36:45;;;;;;;6.82;4.40;;;;;;;;;;5091447;28;20384;-72
2022/06/21 06:39:16;;;;;;;5.50;4.05;;;;;;;;;;5090663;28;20083;-72
2022/06/21 06:41:49;;;;;;;5.38;4.53;;;;;;;;;;5091217;28;20048;-70
2022/06/21 06:44:16;;;;;;;5.38;4.20;;;;;;;;;;5092358;28;20089;-70
2022/06/21 06:46:44;;;;;;;5.05;4.55;;;;;;;;;;5092194;28;20052;-69
2022/06/21 06:49:17;;;;;;;6.57;4.40;;;;;;;;;;5092499;28;20048;-70
2022/06/21 06:52:00;;;;;;;6.50;4.45;;;;;;;;;;5089021;28;20450;-70
2022/06/21 06:54:45;;;;;;;4.15;3.75;;;;;;;;;;5092457;28;20462;-69
2022/06/21 06:57:12;;;;;;;5.97;4.55;;;;;;;;;;5091528;28;20101;-70
2022/06/21 06:59:40;;;;;;;5.18;4.03;;;;;;;;;;5091978;28;20040;-69
2022/06/21 07:02:13;;;;;;;5.43;3.97;;;;;;;;;;5092359;28;20047;-71
2022/06/21 07:04:42;;;;;;;4.75;3.72;;;;;;;;;;5091865;28;20052;-71
2022/06/21 07:07:14;;;;;;;5.25;4.40;;;;;;;;;;5092425;28;20051;-70
2022/06/21 07:09:48;;;;;;;5.82;4.18;;;;;;;;;;5091463;28;20452;-70
2022/06/21 07:12:20;;;;;;;6.80;4.45;;;;;;;;;;5092148;28;20086;-70
2022/06/21 07:14:49;;;;;;;4.93;4.43;;;;;;;;;;5091626;28;20052;-71
2022/06/21 07:17:25;;;;;;;5.55;4.35;;;;;;;;;;5091706;28;20044;-71
2022/06/21 07:19:52;;;;;;;6.55;3.85;;;;;;;;;;5092021;28;20442;-70
2022/06/21 07:22:20;;;;;;;4.88;3.60;;;;;;;;;;5090666;28;20503;-70
2022/06/21 07:25:07;;;;;;;5.47;3.45;;;;;;;;;;5091284;28;20055;-70
2022/06/21 07:27:35;;;;;;;5.68;3.20;;;;;;;;;;5050844;28;20044;-70
2022/06/21 07:30:05;;;;;;;5.15;3.10;;;;;;;;;;5091737;28;20062;-69
2022/06/21 07:32:34;;;;;;;4.45;3.00;;;;;;;;;;5092008;28;20043;-71
2022/06/21 07:35:14;;;;;;;4.70;3.50;;;;;;;;;;5091656;28;20075;-69
2022/06/21 07:37:46;;;;;;;3.80;3.25;;;;;;;;;;5091912;28;20048;-70
2022/06/21 07:40:33;;;;;;;5.15;3.30;;;;;;;;;;5091319;28;20055;-71
2022/06/21 07:43:11;;;;;;;5.32;3.17;;;;;;;;;;5091726;28;20105;-71
2022/06/21 07:45:40;;;;;;;3.90;2.75;;;;;;;;;;5091622;28;20495;-71
2022/06/21 07:48:13;;;;;;;4.40;2.88;;;;;;;;;;5091627;28;20044;-71
2022/06/21 07:50:42;;;;;;;3.63;2.90;;;;;;;;;;5091863;28;20105;-72
2022/06/21 07:53:19;;;;;;;3.97;2.75;;;;;;;;;;5091966;28;20047;-72
2022/06/21 07:55:49;;;;;;;4.07;2.70;;;;;;;;;;5091140;28;20121;-67
2022/06/21 07:58:18;;;;;;;4.72;2.75;;;;;;;;;;5086448;28;20089;-69
2022/06/21 08:09:09;;;;;;;3.83;2.58;;;;;;;;;;5094921;28;20082;-71
2022/06/21 08:11:40;;;;;;;5.88;2.65;;;;;;;;;;5094007;28;20102;-71
2022/06/21 08:14:07;;;;;;;4.85;3.25;;;;;;;;;;5094695;28;20056;-67
2022/06/21 08:16:36;;;;;;;4.00;3.00;;;;;;;;;;5094720;28;20449;-66
2022/06/21 08:19:12;;;;;;;3.55;2.70;;;;;;;;;;5094677;28;20492;-67
2022/06/21 08:21:43;;;;;;;3.55;2.75;;;;;;;;;;5094773;28;20123;-68
2022/06/21 08:24:14;;;;;;;2.97;2.15;;;;;;;;;;5093515;28;20052;-66
2022/06/21 08:26:49;;;;;;;4.32;2.63;;;;;;;;;;5093593;28;20052;-67
2022/06/21 08:29:18;;;;;;;3.88;2.85;;;;;;;;;;5094253;28;20051;-68
2022/06/21 08:31:49;;;;;;;4.75;3.05;;;;;;;;;;5093450;28;20051;-68
2022/06/21 08:34:26;;;;;;;4.40;2.80;;;;;;;;;;5093766;28;20454;-69
2022/06/21 08:36:53;;;;;;;3.28;2.65;;;;;;;;;;5094349;28;20052;-68
2022/06/21 08:39:35;;;;;;;3.55;2.45;;;;;;;;;;5092506;28;20052;-66
2022/06/21 08:42:09;;;;;;;5.13;3.10;;;;;;;;;;5093366;28;20052;-67
2022/06/21 08:44:42;;;;;;;5.00;2.65;;;;;;;;;;5092903;28;20048;-69
2022/06/21 08:47:27;;;;;;;5.80;2.70;;;;;;;;;;5094498;28;20047;-69
2022/06/21 08:50:32;;;;;;;3.75;2.25;;;;;;;;;;5083181;28;20089;-68
2022/06/21 08:53:12;;;;;;;6.27;2.80;;;;;;;;;;5084254;28;20147;-70
2022/06/21 08:55:56;;;;;;;6.40;2.58;;;;;;;;;;5089693;28;20044;-69
2022/06/21 08:58:23;;;;;;;3.90;2.08;;;;;;;;;;5090775;28;20407;-68
2022/06/21 09:00:55;;;;;;;3.05;2.10;;;;;;;;;;5093901;28;20040;-69
2022/06/21 09:03:42;;;;;;;2.85;2.00;;;;;;;;;;5093919;28;20048;-66
2022/06/21 09:06:23;;;;;;;2.55;1.85;;;;;;;;;;5093803;28;20048;-67
2022/06/21 09:08:56;;;;;;;2.97;1.77;;;;;;;;;;5088958;28;20057;-67
2022/06/21 09:11:34;;;;;;;4.15;2.58;;;;;;;;;;5084306;28;20048;-67
2022/06/21 09:14:07;;;;;;;3.75;2.30;;;;;;;;;;5093665;28;20048;-67
2022/06/21 09:16:36;;;;;;;3.95;1.90;;;;;;;;;;5082820;28;20048;-66
2022/06/21 09:19:10;;;;;;;3.83;2.05;;;;;;;;;;5093824;28;20056;-67
2022/06/21 09:21:45;;;;;;;2.53;1.90;;;;;;;;;;5093447;28;20070;-66
2022/06/21 09:24:30;;;;;;;2.30;2.00;;;;;;;;;;5093449;28;20047;-67
2022/06/21 09:27:06;;;;;;;4.10;2.25;;;;;;;;;;5088524;28;20094;-67
2022/06/21 09:29:51;;;;;;;3.70;1.80;;;;;;;;;;5092558;28;20051;-66
2022/06/21 09:32:30;;;;;;;4.43;1.90;;;;;;;;;;5093435;28;20060;-66
2022/06/21 09:35:10;;;;;;;4.35;1.80;;;;;;;;;;5093550;28;20055;-67
2022/06/21 09:37:45;;;;;;;2.65;1.90;;;;;;;;;;5093070;28;20128;-67
2022/06/21 09:40:29;;;;;;;4.80;1.55;;;;;;;;;;5093154;28;20060;-67
2022/06/21 09:43:24;;;;;;;2.88;1.75;;;;;;;;;;5092818;28;20055;-67
2022/06/21 09:46:06;;;;;;;2.78;1.80;;;;;;;;;;5092926;28;20048;-67
2022/06/21 09:48:51;;;;;;;2.95;1.73;;;;;;;;;;5092047;28;20071;-67
2022/06/21 09:51:33;;;;;;;4.82;2.08;;;;;;;;;;5092716;28;20048;-66
2022/06/21 09:54:00;;;;;;;;;;;;;;;;;;5093283;28;20043;-68
2022/06/21 09:56:26;;;;;;;;;;;;;;;;;;5092919;28;20375;-67
2022/06/21 09:58:52;;;;;;;;;;;;;;;;;;5091344;28;19973;-67
2022/06/21 10:01:19;;;;;;;;;;;;;;;;;;5092859;28;19923;-66
2022/06/21 10:03:45;;;;;;;;;;;;;;;;;;5085550;28;19924;-67
2022/06/21 10:06:11;;;;;;;;;;;;;;;;;;5089931;28;19954;-67
2022/06/21 10:08:38;;;;;;;;;;;;;;;;;;5092482;28;20444;-67
2022/06/21 10:11:11;;;;;;;3.38;1.92;;;;;;;;;;5092438;28;19924;-66
2022/06/21 10:13:57;;;;;;;3.15;1.80;;;;;;;;;;5092708;28;20105;-66
2022/06/21 10:16:29;;;;;;;2.70;2.10;;;;;;;;;;5092421;28;20545;-66
2022/06/21 10:19:14;;;;;;;3.30;1.70;;;;;;;;;;5092343;28;20084;-66
2022/06/21 10:21:56;;;;;;;2.45;1.75;;;;;;;;;;5091964;28;20480;-69
2022/06/21 10:24:39;;;;;;;2.90;1.55;;;;;;;;;;5092202;28;20051;-66
2022/06/21 10:27:12;;;;;;;5.15;2.08;;;;;;;;;;5091135;28;20484;-66
2022/06/21 10:29:57;;;;;;;6.60;2.55;;;;;;;;;;5092488;28;20048;-66
2022/06/21 10:33:02;;;;;;;2.45;1.90;;;;;;;;;;5092473;28;20048;-67
2022/06/21 10:35:51;;;;;;;2.30;1.83;;;;;;;;;;5009393;28;20053;-67
2022/06/21 10:38:28;;;;;;;2.92;1.60;;;;;;;;;;5009483;28;20124;-67
2022/06/21 10:40:58;;;;;;;4.65;1.60;;;;;;;;;;5061225;28;20044;-68
2022/06/21 10:43:27;;;;;;;2.78;1.80;;;;;;;;;;5092268;28;20102;-67
2022/06/21 10:45:57;;;;;;;3.88;1.65;;;;;;;;;;5092196;28;20047;-67
2022/06/21 10:48:32;;;;;;;2.30;1.60;;;;;;;;;;5091898;28;20090;-68
2022/06/21 10:51:08;;;;;;;3.53;2.07;;;;;;;;;;5090667;28;20080;-68
2022/06/21 10:53:40;;;;;;;3.95;1.85;;;;;;;;;;5091968;28;20104;-67
2022/06/21 10:59:10;;;;;;;2.93;1.40;;;;;;;;;;5089622;28;20056;-66
2022/06/21 11:01:50;;;;;;;2.08;1.70;;;;;;;;;;5091597;28;20576;-67
2022/06/21 11:04:20;;;;;;;2.85;2.05;;;;;;;;;;5086717;28;20560;-67
2022/06/21 11:07:05;;;;;;;2.30;1.70;;;;;;;;;;5090605;28;20044;-67
2022/06/21 11:09:36;;;;;;;2.83;1.90;;;;;;;;;;5091441;28;20048;-67
2022/06/21 11:15:22;;;;;;;3.47;1.80;;;;;;;;;;5091690;28;20087;-67
2022/06/21 11:18:17;;;;;;;3.53;2.10;;;;;;;;;;5091071;28;20476;-67
2022/06/21 11:20:44;;;;;;;;;;;;;;;;;;5019631;28;20077;-70
2022/06/21 11:23:29;;;;;;;2.85;2.03;;;;;;;;;;5091606;28;19977;-67
2022/06/21 11:26:01;;;;;;;3.00;1.77;;;;;;;;;;5091534;28;20403;-67
2022/06/21 11:28:48;;;;;;;4.57;1.83;;;;;;;;;;5090397;28;20078;-67
2022/06/21 11:31:20;;;;;;;2.90;1.80;;;;;;;;;;5091130;28;20556;-67
2022/06/21 11:33:51;;;;;;;2.97;2.00;;;;;;;;;;5091557;28;20086;-67
2022/06/21 11:36:37;;;;;;;4.20;1.95;;;;;;;;;;5091387;28;20337;-67
2022/06/21 11:39:18;;;;;;;3.70;1.88;;;;;;;;;;5090827;28;20056;-68
2022/06/21 11:42:06;;;;;;;5.93;1.85;;;;;;;;;;5091124;28;20090;-67
2022/06/21 11:44:45;;;;;;;3.10;1.85;;;;;;;;;;5091377;28;20404;-67
2022/06/21 11:47:18;;;;;;;3.28;1.90;;;;;;;;;;5090734;28;20048;-67
2022/06/21 11:49:48;;;;;;;2.17;1.70;;;;;;;;;;5089651;28;20052;-67
2022/06/21 11:52:24;;;;;;;3.78;2.05;;;;;;;;;;5091222;28;20044;-68
2022/06/21 11:54:57;;;;;;;3.95;2.08;;;;;;;;;;5090969;28;20104;-67
2022/06/21 11:57:41;;;;;;;3.92;1.70;;;;;;;;;;5091101;28;20101;-68
2022/06/21 12:00:10;;;;;;;2.88;1.40;;;;;;;;;;5091258;28;20048;-67
2022/06/21 12:02:44;;;;;;;2.33;1.52;;;;;;;;;;5091166;28;20048;-67
2022/06/21 12:05:30;;;;;;;3.15;1.40;;;;;;;;;;5086116;28;20493;-68
2022/06/21 12:08:01;;;;;;;2.80;1.60;;;;;;;;;;5091177;28;20060;-67
2022/06/21 12:10:36;;;;;;;3.03;1.60;;;;;;;;;;5090955;28;20109;-67
2022/06/21 12:13:32;;;;;;;4.85;1.52;;;;;;;;;;5090337;28;20087;-67
2022/06/21 12:16:05;;;;;;;3.05;1.70;;;;;;;;;;5018898;28;20208;-67
2022/06/21 12:18:33;;;;;;;1.58;1.17;;;;;;;;;;5090949;28;20048;-67
2022/06/21 12:21:09;;;;;;;2.65;1.30;;;;;;;;;;5090697;28;20527;-68
2022/06/21 12:23:37;;;;;;;2.28;1.45;;;;;;;;;;5091126;28;20044;-68
2022/06/21 12:26:04;;;;;;;3.30;1.67;;;;;;;;;;5090772;28;20044;-68
2022/06/21 12:28:33;;;;;;;3.05;1.60;;;;;;;;;;5091109;28;20048;-68
2022/06/21 12:31:03;;;;;;;2.33;1.30;;;;;;;;;;5091076;28;20076;-68
2022/06/21 12:33:37;;;;;;;2.83;1.75;;;;;;;;;;5091125;28;20098;-68
2022/06/21 12:36:10;;;;;;;3.17;1.75;;;;;;;;;;5090832;28;20052;-68
2022/06/21 12:38:39;;;;;;;2.67;1.33;;;;;;;;;;5090681;28;20056;-68
2022/06/21 12:41:26;;;;;;;3.40;1.35;;;;;;;;;;5090844;28;20083;-68
2022/06/21 12:44:11;;;;;;;2.45;1.58;;;;;;;;;;5089561;28;20052;-68
2022/06/21 12:46:38;;;;;;;4.25;1.60;;;;;;;;;;5090776;28;20507;-68
2022/06/21 12:49:07;;;;;;;2.35;1.55;;;;;;;;;;5091038;28;20131;-68
2022/06/21 12:51:33;;;;;;;1.95;1.48;;;;;;;;;;5093447;28;20056;-68
2022/06/21 12:54:15;;;;;;;2.83;1.55;;;;;;;;;;5094300;28;20411;-68
2022/06/21 12:57:01;;;;;;;4.35;2.20;;;;;;;;;;5094014;28;20086;-68
2022/06/21 12:59:43;;;;;;;2.65;1.48;;;;;;;;;;5092682;28;20048;-68
2022/06/21 13:02:28;;;;;;;3.25;1.60;;;;;;;;;;5092908;28;20075;-68
2022/06/21 13:05:18;;;;;;;2.20;1.50;;;;;;;;;;5089272;28;20074;-68
2022/06/21 13:07:48;;;;;;;4.38;1.55;;;;;;;;;;5094037;28;20548;-69
2022/06/21 13:10:20;;;;;;;3.25;1.45;;;;;;;;;;5090119;28;20052;-69
2022/06/21 13:12:53;;;;;;;3.75;1.23;;;;;;;;;;5079526;28;20552;-68
2022/06/21 13:15:22;;;;;;;3.08;1.42;;;;;;;;;;5093591;28;20055;-69
2022/06/21 13:18:01;;;;;;;2.67;1.40;;;;;;;;;;5094148;28;20369;-68
2022/06/21 13:20:47;;;;;;;2.10;1.38;;;;;;;;;;5094329;28;20081;-68
2022/06/21 13:23:26;;;;;;;4.53;1.60;;;;;;;;;;5079461;28;20047;-68
2022/06/21 13:25:58;;;;;;;4.35;1.60;;;;;;;;;;5094088;28;20474;-69
2022/06/21 13:28:38;;;;;;;2.10;1.40;;;;;;;;;;5093906;28;20553;-69
2022/06/21 13:31:08;;;;;;;2.47;1.63;;;;;;;;;;5093171;28;20044;-68
2022/06/21 13:33:34;;;;;;;2.17;1.45;;;;;;;;;;5093802;28;20051;-68
2022/06/21 13:36:12;;;;;;;1.77;1.30;;;;;;;;;;5094143;28;20079;-69
2022/06/21 13:38:44;;;;;;;2.08;1.23;;;;;;;;;;5093564;28;20492;-69
2022/06/21 13:42:37;;;;;;;2.60;1.40;;;;;;;;;;5094012;28;20044;-69
2022/06/21 13:43:59;;;;;;;2.92;1.40;;;;;;;;;;5093740;28;20483;-69
2022/06/21 13:46:28;;;;;;;2.35;1.55;;;;;;;;;;5093743;28;20052;-69
2022/06/21 13:49:00;;;;;;;2.58;1.40;;;;;;;;;;5093608;28;20048;-69
2022/06/21 13:51:48;;;;;;;1.95;1.33;;;;;;;;;;5093387;28;20056;-69
2022/06/21 13:54:18;;;;;;;3.10;1.50;;;;;;;;;;5093395;28;20484;-69
2022/06/21 13:56:46;;;;;;;3.60;1.50;;;;;;;;;;5092398;28;20193;-69
2022/06/21 13:59:30;;;;;;;2.38;1.30;;;;;;;;;;5093405;28;20040;-69
2022/06/21 14:01:59;;;;;;;2.28;1.30;;;;;;;;;;5093060;28;20043;-69
2022/06/21 14:04:45;;;;;;;1.85;1.35;;;;;;;;;;5093265;28;20130;-69
2022/06/21 14:07:25;;;;;;;2.42;1.25;;;;;;;;;;5093268;28;20040;-70
2022/06/21 14:09:52;;;;;;;1.88;1.20;;;;;;;;;;5093601;28;20047;-69
2022/06/21 14:12:21;;;;;;;2.92;1.35;;;;;;;;;;5092830;28;20503;-73
2022/06/21 14:14:54;;;;;;;1.67;1.13;;;;;;;;;;5077867;28;20048;-74
2022/06/21 14:17:26;;;;;;;2.17;1.10;;;;;;;;;;5092979;28;20075;-74
2022/06/21 14:20:11;;;;;;;3.22;1.20;;;;;;;;;;5091697;28;20067;-73
2022/06/21 14:22:50;;;;;;;2.03;1.20;;;;;;;;;;5089301;28;20052;-69
2022/06/21 14:25:46;;;;;;;2.80;1.30;;;;;;;;;;5082165;28;20043;-69
2022/06/21 14:28:24;;;;;;;2.20;1.40;;;;;;;;;;5065657;28;20105;-69
2022/06/21 14:31:00;;;;;;;4.05;1.40;;;;;;;;;;5092545;28;20058;-70
2022/06/21 14:33:27;;;;;;;;;;;;;;;;;;5092609;28;20461;-69
2022/06/21 14:36:07;;;;;;;3.00;1.50;;;;;;;;;;5091865;28;20335;-69
2022/06/21 14:38:37;;;;;;;3.75;1.38;;;;;;;;;;5092194;28;20120;-69
2022/06/21 14:41:03;;;;;;;2.38;1.15;;;;;;;;;;5091703;28;20087;-70
2022/06/21 14:43:35;;;;;;;2.83;1.23;;;;;;;;;;5090234;28;20048;-70
2022/06/21 14:46:11;;;;;;;3.50;1.40;;;;;;;;;;5092287;28;20036;-69
2022/06/21 14:48:51;;;;;;;2.60;1.30;;;;;;;;;;5091832;28;20056;-69
2022/06/21 14:51:17;;;;;;;1.35;1.13;;;;;;;;;;5091870;28;20059;-69
2022/06/21 14:53:47;;;;;;;2.35;1.20;;;;;;;;;;5090418;28;20500;-69
2022/06/21 14:56:26;;;;;;;3.25;1.60;;;;;;;;;;5090983;28;20106;-68
2022/06/21 14:58:59;;;;;;;2.58;1.48;;;;;;;;;;5091655;28;20044;-69
2022/06/21 15:01:47;;;;;;;3.47;1.50;;;;;;;;;;5091634;28;20054;-69
2022/06/21 15:04:26;;;;;;;3.72;1.40;;;;;;;;;;5091957;28;20079;-69
2022/06/21 15:07:11;;;;;;;3.85;1.50;;;;;;;;;;5091934;28;20454;-68
2022/06/21 15:09:46;;;;;;;3.97;1.80;;;;;;;;;;5091906;28;20044;-69
2022/06/21 15:12:15;;;;;;;3.25;1.50;;;;;;;;;;5091951;28;20062;-69
2022/06/21 15:14:54;;;;;;;2.00;1.35;;;;;;;;;;5091311;28;20450;-69
2022/06/21 15:17:29;;;;;;;2.40;1.40;;;;;;;;;;5090905;28;20097;-67
2022/06/21 15:20:08;;;;;;;2.45;1.23;;;;;;;;;;5090626;28;20044;-68
2022/06/21 15:22:37;;;;;;;2.88;1.20;;;;;;;;;;5091535;28;20117;-69
2022/06/21 15:25:13;;;;;;;4.53;1.45;;;;;;;;;;5091256;28;20048;-69
2022/06/21 15:27:42;;;;;;;3.50;1.40;;;;;;;;;;5090989;28;20130;-69
2022/06/21 15:30:13;;;;;;;3.70;1.50;;;;;;;;;;5090506;28;20116;-68
2022/06/21 15:32:45;;;;;;;3.13;1.42;;;;;;;;;;5090245;28;20056;-68
2022/06/21 15:35:12;;;;;;;2.13;1.50;;;;;;;;;;5091130;28;20052;-68
2022/06/21 15:37:42;;;;;;;3.15;1.70;;;;;;;;;;5090912;28;20040;-68
2022/06/21 15:40:20;;;;;;;2.47;1.50;;;;;;;;;;5090523;28;20164;-69
2022/06/21 15:42:51;;;;;;;2.78;1.67;;;;;;;;;;5089761;28;20097;-68